createdAt,value
2023-01-02T00:01:32.507Z,100.00
2023-01-02T00:03:59.839Z,100.00
2023-01-02T00:06:27.287Z,100.00
2023-01-02T00:08:54.621Z,100.00
2023-01-02T00:11:21.928Z,100.00
2023-01-02T00:13:49.239Z,100.00
2023-01-02T00:16:16.444Z,100.00
2023-01-02T00:18:43.832Z,100.00
2023-01-02T00:21:11.141Z,100.00
2023-01-02T00:23:38.988Z,100.00
2023-01-02T00:26:06.920Z,100.00
2023-01-02T00:28:34.239Z,100.00
2023-01-02T00:31:14.087Z,100.00
2023-01-02T00:33:41.507Z,100.00
2023-01-02T00:36:11.533Z,100.00
2023-01-02T00:38:41.173Z,100.00
2023-01-02T00:41:09.105Z,100.00
2023-01-02T00:43:37.383Z,100.00
2023-01-02T00:46:11.186Z,100.00
2023-01-02T00:48:39.988Z,100.00
2023-01-02T00:51:07.717Z,100.00
2023-01-02T00:53:35.817Z,100.00
2023-01-02T00:56:03.154Z,100.00
2023-01-02T00:58:30.390Z,100.00
2023-01-02T01:00:57.631Z,100.00
2023-01-02T01:03:24.875Z,100.00
2023-01-02T01:05:52.155Z,100.00
2023-01-02T01:08:19.453Z,100.00
2023-01-02T01:10:46.683Z,100.00
2023-01-02T01:13:13.896Z,100.00
2023-01-02T01:15:41.112Z,100.00
2023-01-02T01:18:08.351Z,100.00
2023-01-02T01:20:39.463Z,100.00
2023-01-02T01:23:06.694Z,100.00
2023-01-02T01:25:33.886Z,100.00
2023-01-02T01:28:01.148Z,100.00
2023-01-02T01:30:28.346Z,100.00
2023-01-02T01:32:55.513Z,100.00
2023-01-02T01:35:22.753Z,100.00
2023-01-02T01:37:49.946Z,100.00
2023-01-02T01:40:17.207Z,100.00
2023-01-02T01:42:44.399Z,100.00
2023-01-02T01:45:16.731Z,100.00
2023-01-02T01:48:02.912Z,100.00
2023-01-02T01:50:34.985Z,100.00
2023-01-02T01:53:16.374Z,100.00
2023-01-02T01:55:57.420Z,100.00
2023-01-02T01:58:35.540Z,100.00
2023-01-02T02:01:04.120Z,100.00
2023-01-02T02:03:34.968Z,100.00
2023-01-02T02:06:03.350Z,100.00
2023-01-02T02:08:48.326Z,100.00
2023-01-02T02:11:16.567Z,100.00
2023-01-02T02:13:43.995Z,100.00
2023-01-02T02:16:25.834Z,100.00
2023-01-02T02:19:17.391Z,100.00
2023-01-02T02:22:22.789Z,100.00
2023-01-02T02:25:27.844Z,100.00
2023-01-02T02:28:28.927Z,100.00
2023-01-02T02:31:14.589Z,100.00
2023-01-02T02:33:53.900Z,100.00
2023-01-02T02:36:53.797Z,100.00
2023-01-02T02:40:28.265Z,100.00
2023-01-02T02:43:59.259Z,100.00
2023-01-02T02:46:55.019Z,100.00
2023-01-02T02:49:59.652Z,100.00
2023-01-02T02:53:00.963Z,100.00
2023-01-02T02:56:01.026Z,100.00
2023-01-02T02:58:30.095Z,100.00
2023-01-02T03:01:13.097Z,100.00
2023-01-02T03:03:40.463Z,100.00
2023-01-02T03:06:39.740Z,100.00
2023-01-02T03:09:28.275Z,100.00
2023-01-02T03:12:39.805Z,100.00
2023-01-02T03:15:18.791Z,100.00
2023-01-02T03:18:23.787Z,100.00
2023-01-02T03:21:26.573Z,100.00
2023-01-02T03:24:01.119Z,100.00
2023-01-02T03:26:33.103Z,100.00
2023-01-02T03:29:12.817Z,100.00
2023-01-02T03:31:44.100Z,100.00
2023-01-02T03:34:16.412Z,100.00
2023-01-02T03:36:48.655Z,100.00
2023-01-02T03:39:20.068Z,100.00
2023-01-02T03:41:58.159Z,100.00
2023-01-02T03:44:34.114Z,100.00
2023-01-02T03:47:56.518Z,100.00
2023-01-02T03:50:48.379Z,100.00
2023-01-02T03:53:15.821Z,100.00
2023-01-02T03:56:22.394Z,100.00
2023-01-02T03:59:10.571Z,100.00
2023-01-02T04:02:00.249Z,100.00
2023-01-02T04:04:59.720Z,100.00
2023-01-02T04:07:52.953Z,100.00
2023-01-02T04:10:21.491Z,100.00
2023-01-02T04:12:54.233Z,100.00
2023-01-02T04:15:26.703Z,100.00
2023-01-02T04:18:05.818Z,100.00
2023-01-02T04:20:42.097Z,100.00
2023-01-02T04:23:32.370Z,100.00
2023-01-02T04:26:17.167Z,100.00
2023-01-02T04:28:44.546Z,100.00
2023-01-02T04:31:33.697Z,100.00
2023-01-02T04:34:02.832Z,100.00
2023-01-02T04:36:30.525Z,100.00
2023-01-02T04:38:57.868Z,100.00
2023-01-02T04:41:27.282Z,100.00
2023-01-02T04:43:56.345Z,100.00
2023-01-02T04:46:25.736Z,100.00
2023-01-02T04:48:54.332Z,100.00
2023-01-02T04:51:22.926Z,100.00
2023-01-02T04:53:54.270Z,100.00
2023-01-02T04:56:22.276Z,100.00
2023-01-02T04:58:50.653Z,100.00
2023-01-02T05:01:21.782Z,100.00
2023-01-02T05:03:52.958Z,100.00
2023-01-02T05:06:20.730Z,100.00
2023-01-02T05:08:47.985Z,100.00
2023-01-02T05:11:18.626Z,100.00
2023-01-02T05:13:46.434Z,100.00
2023-01-02T05:16:14.099Z,100.00
2023-01-02T05:18:41.708Z,100.00
2023-01-02T05:21:30.834Z,100.00
2023-01-02T05:24:01.517Z,100.00
2023-01-02T05:26:30.825Z,100.00
2023-01-02T05:28:58.113Z,100.00
2023-01-02T05:31:25.997Z,100.00
2023-01-02T05:33:55.002Z,100.00
2023-01-02T05:36:24.468Z,100.00
2023-01-02T05:38:52.813Z,100.00
2023-01-02T05:41:21.917Z,100.00
2023-01-02T05:43:49.346Z,100.00
2023-01-02T05:46:19.621Z,100.00
2023-01-02T05:48:47.597Z,100.00
2023-01-02T05:51:18.065Z,100.00
2023-01-02T05:53:45.862Z,100.00
2023-01-02T05:56:18.649Z,100.00
2023-01-02T05:58:49.613Z,100.00
2023-01-02T06:01:21.181Z,100.00
2023-01-02T06:03:51.930Z,100.00
2023-01-02T06:06:24.457Z,100.00
2023-01-02T06:08:52.233Z,100.00
2023-01-02T06:11:19.686Z,100.00
2023-01-02T06:13:46.970Z,100.00
2023-01-02T06:16:14.336Z,100.00
2023-01-02T06:18:41.971Z,100.00
2023-01-02T06:21:13.467Z,100.00
2023-01-02T06:23:42.265Z,100.00
2023-01-02T06:26:16.236Z,100.00
2023-01-02T06:28:44.371Z,100.00
2023-01-02T06:31:16.962Z,100.00
2023-01-02T06:33:45.344Z,100.00
2023-01-02T06:36:16.971Z,100.00
2023-01-02T06:38:46.040Z,100.00
2023-01-02T06:41:14.277Z,100.00
2023-01-02T06:43:48.116Z,100.00
2023-01-02T06:46:18.519Z,100.00
2023-01-02T06:48:46.723Z,100.00
2023-01-02T06:51:17.922Z,100.00
2023-01-02T06:53:46.054Z,100.00
2023-01-02T06:56:16.199Z,100.00
2023-01-02T06:58:44.121Z,100.00
2023-01-02T07:01:20.619Z,100.00
2023-01-02T07:03:49.059Z,100.00
2023-01-02T07:06:19.747Z,100.00
2023-01-02T07:08:48.732Z,100.00
2023-01-02T07:11:20.332Z,100.00
2023-01-02T07:13:50.262Z,100.00
2023-01-02T07:16:20.118Z,100.00
2023-01-02T07:18:47.670Z,100.00
2023-01-02T07:21:18.291Z,100.00
2023-01-02T07:23:45.936Z,100.00
2023-01-02T07:26:13.981Z,100.00
2023-01-02T07:28:41.673Z,100.00
2023-01-02T07:31:14.151Z,100.00
2023-01-02T07:33:41.932Z,100.00
2023-01-02T07:36:13.760Z,100.00
2023-01-02T07:38:41.019Z,100.00
2023-01-02T07:41:16.965Z,100.00
2023-01-02T07:43:46.045Z,100.00
2023-01-02T07:46:16.370Z,100.00
2023-01-02T07:48:44.631Z,100.00
2023-01-02T07:51:12.955Z,100.00
2023-01-02T07:53:41.694Z,100.00
2023-01-02T07:56:09.843Z,100.00
2023-01-02T07:58:37.756Z,100.00
2023-01-02T08:01:11.188Z,100.00
2023-01-02T08:03:38.864Z,100.00
2023-01-02T08:06:09.863Z,100.00
2023-01-02T08:08:37.673Z,100.00
2023-01-02T08:11:18.020Z,100.00
2023-01-02T08:13:45.678Z,100.00
2023-01-02T08:16:16.678Z,94.76
2023-01-02T08:18:44.005Z,91.67
2023-01-02T08:21:11.905Z,88.33
2023-01-02T08:23:39.638Z,86.51
2023-01-02T08:26:09.111Z,82.27
2023-01-02T08:28:38.964Z,74.33
2023-01-02T08:31:17.160Z,68.96
2023-01-02T08:33:44.979Z,59.96
2023-01-02T08:36:14.663Z,59.67
2023-01-02T08:38:43.087Z,62.96
2023-01-02T08:41:10.859Z,62.34
2023-01-02T08:43:38.588Z,59.90
2023-01-02T08:46:08.509Z,58.73
2023-01-02T08:48:36.459Z,58.33
2023-01-02T08:51:04.873Z,55.94
2023-01-02T08:53:32.226Z,55.59
2023-01-02T08:56:27.706Z,53.44
2023-01-02T08:59:05.237Z,53.12
2023-01-02T09:01:33.819Z,54.37
2023-01-02T09:04:09.389Z,52.17
2023-01-02T09:06:39.177Z,50.98
2023-01-02T09:09:11.637Z,49.98
2023-01-02T09:11:50.907Z,50.51
2023-01-02T09:14:22.480Z,53.56
2023-01-02T09:16:51.758Z,55.77
2023-01-02T09:19:19.648Z,59.15
2023-01-02T09:21:47.472Z,63.68
2023-01-02T09:24:14.812Z,66.85
2023-01-02T09:26:42.643Z,71.52
2023-01-02T09:29:11.965Z,74.81
2023-01-02T09:31:40.319Z,75.47
2023-01-02T09:34:07.977Z,75.68
2023-01-02T09:36:35.726Z,73.28
2023-01-02T09:39:04.093Z,71.76
2023-01-02T09:41:38.680Z,70.42
2023-01-02T09:44:31.359Z,72.39
2023-01-02T09:47:11.591Z,74.16
2023-01-02T09:50:04.067Z,79.02
2023-01-02T09:52:37.956Z,78.38
2023-01-02T09:55:16.654Z,79.60
2023-01-02T09:57:53.181Z,81.36
2023-01-02T10:00:25.864Z,83.96
2023-01-02T10:03:40.656Z,85.54
2023-01-02T10:06:24.947Z,83.94
2023-01-02T10:09:19.892Z,85.21
2023-01-02T10:12:35.724Z,81.58
2023-01-02T10:15:13.823Z,82.66
2023-01-02T10:17:50.458Z,79.05
2023-01-02T10:20:54.278Z,77.03
2023-01-02T10:23:29.655Z,77.33
2023-01-02T10:26:03.472Z,76.19
2023-01-02T10:28:57.690Z,76.67
2023-01-02T10:32:00.216Z,76.02
2023-01-02T10:34:50.109Z,75.87
2023-01-02T10:37:17.834Z,73.93
2023-01-02T10:39:48.624Z,73.70
2023-01-02T10:42:17.035Z,73.13
2023-01-02T10:44:46.927Z,72.65
2023-01-02T10:47:26.554Z,70.88
2023-01-02T10:49:54.438Z,71.71
2023-01-02T10:52:27.744Z,71.30
2023-01-02T10:55:00.649Z,70.91
2023-01-02T10:57:51.554Z,70.84
2023-01-02T11:00:25.524Z,68.59
2023-01-02T11:03:20.783Z,61.29
2023-01-02T11:05:52.081Z,57.22
2023-01-02T11:08:23.597Z,55.58
2023-01-02T11:10:51.658Z,52.14
2023-01-02T11:13:21.789Z,49.67
2023-01-02T11:16:04.219Z,46.91
2023-01-02T11:18:34.702Z,42.90
2023-01-02T11:21:06.176Z,42.90
2023-01-02T11:23:43.048Z,42.89
2023-01-02T11:26:22.707Z,43.06
2023-01-02T11:28:53.608Z,43.23
2023-01-02T11:31:23.049Z,45.18
2023-01-02T11:33:50.413Z,45.04
2023-01-02T11:36:19.894Z,44.30
2023-01-02T11:38:56.899Z,45.00
2023-01-02T11:42:18.235Z,47.96
2023-01-02T11:45:02.001Z,53.60
2023-01-02T11:47:48.740Z,56.69
2023-01-02T11:50:27.816Z,59.80
2023-01-02T11:53:02.829Z,61.57
2023-01-02T11:56:27.220Z,62.91
2023-01-02T11:59:09.512Z,63.11
2023-01-02T12:01:51.706Z,65.02
2023-01-02T12:04:19.082Z,67.20
2023-01-02T12:06:55.330Z,68.28
2023-01-02T12:09:35.419Z,67.74
2023-01-02T12:12:17.075Z,65.89
2023-01-02T12:15:24.185Z,64.04
2023-01-02T12:18:31.010Z,62.23
2023-01-02T12:21:19.776Z,60.97
2023-01-02T12:24:19.850Z,58.73
2023-01-02T12:27:08.090Z,58.20
2023-01-02T12:30:03.121Z,58.61
2023-01-02T12:33:01.523Z,60.52
2023-01-02T12:35:56.233Z,63.92
2023-01-02T12:39:01.884Z,62.64
2023-01-02T12:42:02.533Z,64.65
2023-01-02T12:44:49.937Z,65.62
2023-01-02T12:47:44.432Z,67.07
2023-01-02T12:50:17.421Z,67.38
2023-01-02T12:53:24.647Z,65.94
2023-01-02T12:56:12.980Z,68.44
2023-01-02T12:59:10.689Z,69.21
2023-01-02T13:01:54.524Z,71.43
2023-01-02T13:04:42.574Z,72.74
2023-01-02T13:07:14.400Z,75.07
2023-01-02T13:09:46.221Z,75.05
2023-01-02T13:12:26.869Z,73.75
2023-01-02T13:15:01.100Z,75.56
2023-01-02T13:17:51.082Z,76.60
2023-01-02T13:21:00.650Z,82.68
2023-01-02T13:23:40.231Z,83.83
2023-01-02T13:26:16.645Z,86.36
2023-01-02T13:29:06.937Z,84.28
2023-01-02T13:31:47.793Z,86.24
2023-01-02T13:34:23.345Z,87.71
2023-01-02T13:36:58.527Z,90.54
2023-01-02T13:39:39.620Z,92.05
2023-01-02T13:42:40.245Z,90.14
2023-01-02T13:45:37.214Z,92.43
2023-01-02T13:48:37.855Z,91.43
2023-01-02T13:51:21.027Z,94.17
2023-01-02T13:53:52.748Z,93.65
2023-01-02T13:56:20.702Z,92.11
2023-01-02T13:59:41.902Z,93.96
2023-01-02T14:02:21.124Z,94.48
2023-01-02T14:04:49.097Z,95.35
2023-01-02T14:07:25.395Z,97.83
2023-01-02T14:10:40.125Z,97.99
2023-01-02T14:13:12.698Z,99.34
2023-01-02T14:16:22.558Z,98.10
2023-01-02T14:19:14.813Z,99.24
2023-01-02T14:21:59.139Z,100.00
2023-01-02T14:24:37.854Z,100.00
2023-01-02T14:27:21.149Z,100.00
2023-01-02T14:30:06.680Z,100.00
2023-01-02T14:32:47.035Z,100.00
2023-01-02T14:35:14.221Z,100.00
2023-01-02T14:38:19.642Z,100.00
2023-01-02T14:40:47.879Z,100.00
2023-01-02T14:43:37.899Z,100.00
2023-01-02T14:46:05.186Z,100.00
2023-01-02T14:48:56.837Z,100.00
2023-01-02T14:51:37.167Z,100.00
2023-01-02T14:54:18.974Z,100.00
2023-01-02T14:57:12.335Z,100.00
2023-01-02T14:59:47.454Z,100.00
2023-01-02T15:02:20.021Z,100.00
2023-01-02T15:04:57.516Z,100.00
2023-01-02T15:07:36.821Z,100.00
2023-01-02T15:10:24.141Z,100.00
2023-01-02T15:13:07.270Z,100.00
2023-01-02T15:15:45.950Z,100.00
2023-01-02T15:18:18.948Z,100.00
2023-01-02T15:21:09.595Z,100.00
2023-01-02T15:23:42.252Z,100.00
2023-01-02T15:26:33.868Z,100.00
2023-01-02T15:29:06.937Z,100.00
2023-01-02T15:31:34.423Z,100.00
2023-01-02T15:34:02.226Z,100.00
2023-01-02T15:36:39.743Z,100.00
2023-01-02T15:39:16.103Z,100.00
2023-01-02T15:41:54.517Z,100.00
2023-01-02T15:44:48.455Z,100.00
2023-01-02T15:47:20.089Z,100.00
2023-01-02T15:49:49.818Z,100.00
2023-01-02T15:52:26.946Z,100.00
2023-01-02T15:54:54.754Z,100.00
2023-01-02T15:57:29.950Z,100.00
2023-01-02T15:59:57.529Z,100.00
2023-01-02T16:02:44.795Z,100.00
2023-01-02T16:05:18.934Z,100.00
2023-01-02T16:07:58.905Z,100.00
2023-01-02T16:10:30.673Z,100.00
2023-01-02T16:13:28.196Z,100.00
2023-01-02T16:15:58.902Z,100.00
2023-01-02T16:18:49.503Z,100.00
2023-01-02T16:21:18.396Z,100.00
2023-01-02T16:23:54.319Z,100.00
2023-01-02T16:26:32.440Z,100.00
2023-01-02T16:28:59.937Z,100.00
2023-01-02T16:31:29.116Z,100.00
2023-01-02T16:34:14.751Z,100.00
2023-01-02T16:36:42.473Z,100.00
2023-01-02T16:39:49.453Z,100.00
2023-01-02T16:42:37.660Z,100.00
2023-01-02T16:45:06.873Z,100.00
2023-01-02T16:47:41.513Z,100.00
2023-01-02T16:50:18.083Z,100.00
2023-01-02T16:52:46.062Z,100.00
2023-01-02T16:55:20.299Z,100.00
2023-01-02T16:57:50.566Z,100.00
2023-01-02T17:00:19.718Z,100.00
2023-01-02T17:02:47.835Z,100.00
2023-01-02T17:05:41.851Z,100.00
2023-01-02T17:08:09.237Z,100.00
2023-01-02T17:10:36.515Z,100.00
2023-01-02T17:13:05.079Z,100.00
2023-01-02T17:15:32.457Z,100.00
2023-01-02T17:18:00.075Z,100.00
2023-01-02T17:20:28.437Z,100.00
2023-01-02T17:22:56.073Z,100.00
2023-01-02T17:25:23.529Z,100.00
2023-01-02T17:27:51.168Z,100.00
2023-01-02T17:30:18.567Z,100.00
2023-01-02T17:32:47.241Z,100.00
2023-01-02T17:35:15.789Z,100.00
2023-01-02T17:37:43.488Z,100.00
2023-01-02T17:40:13.266Z,100.00
2023-01-02T17:42:43.212Z,100.00
2023-01-02T17:45:11.689Z,100.00
2023-01-02T17:48:00.700Z,100.00
2023-01-02T17:50:27.259Z,100.00
2023-01-02T17:52:54.552Z,100.00
2023-01-02T17:55:21.903Z,100.00
2023-01-02T17:57:49.877Z,100.00
2023-01-02T18:00:18.387Z,100.00
2023-01-02T18:02:45.751Z,100.00
2023-01-02T18:05:13.205Z,100.00
2023-01-02T18:07:40.528Z,100.00
2023-01-02T18:10:09.980Z,100.00
2023-01-02T18:12:39.713Z,100.00
2023-01-02T18:15:14.043Z,100.00
2023-01-02T18:17:41.579Z,100.00
2023-01-02T18:21:00.771Z,100.00
2023-01-02T18:23:28.113Z,100.00
2023-01-02T18:26:00.946Z,100.00
2023-01-02T18:28:30.140Z,100.00
2023-01-02T18:30:59.995Z,100.00
2023-01-02T18:33:28.373Z,100.00
2023-01-02T18:36:02.676Z,100.00
2023-01-02T18:38:38.198Z,100.00
2023-01-02T18:41:19.220Z,100.00
2023-01-02T18:43:49.719Z,100.00
2023-01-02T18:46:23.534Z,100.00
2023-01-02T18:48:52.125Z,100.00
2023-01-02T18:51:23.571Z,100.00
2023-01-02T18:53:54.111Z,100.00
2023-01-02T18:56:30.964Z,100.00
2023-01-02T18:59:31.141Z,100.00
2023-01-02T19:02:03.774Z,100.00
2023-01-02T19:04:39.645Z,100.00
2023-01-02T19:07:31.421Z,100.00
2023-01-02T19:10:31.349Z,100.00
2023-01-02T19:13:08.072Z,100.00
2023-01-02T19:16:00.596Z,100.00
2023-01-02T19:18:49.102Z,100.00
2023-01-02T19:21:26.933Z,100.00
2023-01-02T19:24:25.255Z,100.00
2023-01-02T19:26:58.826Z,100.00
2023-01-02T19:29:35.419Z,100.00
2023-01-02T19:32:25.349Z,100.00
2023-01-02T19:34:59.906Z,100.00
2023-01-02T19:37:41.642Z,100.00
2023-01-02T19:40:22.047Z,100.00
2023-01-02T19:42:54.593Z,100.00
2023-01-02T19:45:28.046Z,100.00
2023-01-02T19:47:55.599Z,100.00
2023-01-02T19:50:26.952Z,100.00
2023-01-02T19:52:54.521Z,100.00
2023-01-02T19:55:47.426Z,100.00
2023-01-02T19:58:14.840Z,100.00
2023-01-02T20:00:45.762Z,100.00
2023-01-02T20:03:15.021Z,100.00
2023-01-02T20:05:44.853Z,100.00
2023-01-02T20:08:12.279Z,100.00
2023-01-02T20:10:39.861Z,100.00
2023-01-02T20:13:07.212Z,100.00
2023-01-02T20:15:34.658Z,100.00
2023-01-02T20:18:08.365Z,100.00
2023-01-02T20:20:36.292Z,100.00
2023-01-02T20:23:03.818Z,100.00
2023-01-02T20:25:31.221Z,100.00
2023-01-02T20:27:59.957Z,100.00
2023-01-02T20:30:27.400Z,100.00
2023-01-02T20:32:55.806Z,100.00
2023-01-02T20:35:23.675Z,100.00
2023-01-02T20:37:51.155Z,100.00
2023-01-02T20:40:18.582Z,100.00
2023-01-02T20:42:46.045Z,100.00
2023-01-02T20:45:14.104Z,100.00
2023-01-02T20:47:41.930Z,100.00
2023-01-02T20:50:09.655Z,100.00
2023-01-02T20:52:37.079Z,100.00
2023-01-02T20:55:04.784Z,100.00
2023-01-02T20:57:32.340Z,100.00
2023-01-02T21:00:01.585Z,100.00
2023-01-02T21:02:29.474Z,100.00
2023-01-02T21:04:56.943Z,100.00
2023-01-02T21:07:24.316Z,100.00
2023-01-02T21:09:57.619Z,100.00
2023-01-02T21:12:43.743Z,100.00
2023-01-02T21:15:32.237Z,100.00
2023-01-02T21:18:00.005Z,100.00
2023-01-02T21:20:27.736Z,100.00
2023-01-02T21:22:55.017Z,100.00
2023-01-02T21:25:22.286Z,100.00
2023-01-02T21:27:49.705Z,100.00
2023-01-02T21:30:17.097Z,100.00
2023-01-02T21:32:44.800Z,100.00
2023-01-02T21:35:12.173Z,100.00
2023-01-02T21:37:39.660Z,100.00
2023-01-02T21:40:08.175Z,100.00
2023-01-02T21:42:42.554Z,100.00
2023-01-02T21:45:12.129Z,100.00
2023-01-02T21:47:39.470Z,100.00
2023-01-02T21:50:07.559Z,100.00
2023-01-02T21:52:35.133Z,100.00
2023-01-02T21:55:02.526Z,100.00
2023-01-02T21:58:02.712Z,100.00
2023-01-02T22:00:21.367Z,100.00
2023-01-02T22:02:48.815Z,100.00
2023-01-02T22:05:18.397Z,100.00
2023-01-02T22:07:46.081Z,100.00
2023-01-02T22:10:15.543Z,100.00
2023-01-02T22:12:43.841Z,100.00
2023-01-02T22:15:12.870Z,100.00
2023-01-02T22:17:40.642Z,100.00
2023-01-02T22:20:09.559Z,100.00
2023-01-02T22:22:37.044Z,100.00
2023-01-02T22:25:05.444Z,100.00
2023-01-02T22:27:33.445Z,100.00
2023-01-02T22:30:21.609Z,100.00
2023-01-02T22:32:49.986Z,100.00
2023-01-02T22:35:17.623Z,100.00
2023-01-02T22:37:44.937Z,100.00
2023-01-02T22:40:13.063Z,100.00
2023-01-02T22:43:05.694Z,100.00
2023-01-02T22:45:44.114Z,100.00
2023-01-02T22:48:28.255Z,100.00
2023-01-02T22:50:59.304Z,100.00
2023-01-02T22:53:32.137Z,100.00
2023-01-02T22:56:02.162Z,100.00
2023-01-02T22:58:29.681Z,100.00
2023-01-02T23:01:10.226Z,100.00
2023-01-02T23:03:41.333Z,100.00
2023-01-02T23:06:08.705Z,100.00
2023-01-02T23:08:36.287Z,100.00
2023-01-02T23:11:05.310Z,100.00
2023-01-02T23:13:34.439Z,100.00
2023-01-02T23:16:21.369Z,100.00
2023-01-02T23:19:07.471Z,100.00
2023-01-02T23:21:37.311Z,100.00
2023-01-02T23:24:06.925Z,100.00
2023-01-02T23:26:48.537Z,100.00
2023-01-02T23:29:16.994Z,100.00
2023-01-02T23:31:48.825Z,100.00
2023-01-02T23:34:20.755Z,100.00
2023-01-02T23:36:48.019Z,100.00
2023-01-02T23:39:19.649Z,100.00
2023-01-02T23:41:48.349Z,100.00
2023-01-02T23:44:16.740Z,100.00
2023-01-02T23:46:45.243Z,100.00
2023-01-02T23:49:13.780Z,100.00
2023-01-02T23:51:42.189Z,100.00
2023-01-02T23:54:13.034Z,100.00
2023-01-02T23:56:42.221Z,100.00
2023-01-02T23:59:14.742Z,100.00
